Time;durP1;ratioP1;P1;durP2;ratioP2;P2;SDS_P1;SDS_P2;PMS_P1;PMS_P2;Temp;Humidity;BMP_temperature;BMP_pressure;BME280_temperature;BME280_humidity;BME280_pressure;Samples;Min_cycle;Max_cycle;Signal;HPM_P1;HPM_P2
2023/10/14 00:02:21;;;;;;;;;;;19.30;99.90;;;;;;2616876;47;19938;-73
2023/10/14 00:04:53;;;;;;;;;;;19.30;99.90;;;;;;2618426;54;19953;-73
2023/10/14 00:07:25;;;;;;;;;;;19.20;99.90;;;;;;2617916;54;19950;-72
2023/10/14 00:09:57;;;;;;;;;;;19.20;99.90;;;;;;2618800;47;20003;-73
2023/10/14 00:12:28;;;;;;;;;;;19.10;99.90;;;;;;2618441;47;19945;-73
2023/10/14 00:15:03;;;;;;;;;;;19.10;99.90;;;;;;2619057;54;19953;-73
2023/10/14 00:17:41;;;;;;;;;;;19.10;99.90;;;;;;2618533;54;19996;-73
2023/10/14 00:20:14;;;;;;;;;;;19.00;99.90;;;;;;2618597;54;19942;-73
2023/10/14 00:22:44;;;;;;;;;;;18.90;99.90;;;;;;2618501;54;19999;-73
2023/10/14 00:25:19;;;;;;;;;;;18.90;99.90;;;;;;2619118;54;19939;-73
2023/10/14 00:27:50;;;;;;;;;;;18.90;99.90;;;;;;2619311;54;20434;-72
2023/10/14 00:30:25;;;;;;;;;;;18.90;99.90;;;;;;2618880;54;20406;-72
2023/10/14 00:32:59;;;;;;;;;;;18.80;99.90;;;;;;2618367;54;20441;-72
2023/10/14 00:35:28;;;;;;;;;;;18.80;99.90;;;;;;2619353;47;19946;-72
2023/10/14 00:38:08;;;;;;;;;;;18.80;99.90;;;;;;2618821;54;19951;-73
2023/10/14 00:40:38;;;;;;;;;;;18.90;99.90;;;;;;2619503;54;19952;-73
2023/10/14 00:43:08;;;;;;;;;;;18.90;99.90;;;;;;2618690;54;19953;-72
2023/10/14 00:45:43;;;;;;;;;;;18.90;99.90;;;;;;2619041;54;19995;-72
2023/10/14 00:48:26;;;;;;;;;;;19.00;99.90;;;;;;2619423;54;19953;-73
2023/10/14 00:50:58;;;;;;;;;;;19.00;99.90;;;;;;2618338;54;19970;-73
2023/10/14 00:53:30;;;;;;;;;;;19.00;99.90;;;;;;2617807;54;19947;-72
2023/10/14 00:56:02;;;;;;;;;;;19.00;99.90;;;;;;2619157;47;19943;-73
2023/10/14 00:58:39;;;;;;;;;;;19.00;99.90;;;;;;2619389;39;20377;-73
2023/10/14 01:01:09;;;;;;;;;;;19.10;99.90;;;;;;2618074;54;19947;-72
2023/10/14 01:03:41;;;;;;;;;;;19.10;99.90;;;;;;2619046;54;19947;-72
2023/10/14 01:06:23;;;;;;;;;;;19.10;99.90;;;;;;2624536;54;19972;-74
2023/10/14 01:08:55;;;;;;;;;;;19.10;99.90;;;;;;2623933;47;20460;-72
2023/10/14 01:11:26;;;;;;;;;;;19.30;99.90;;;;;;2619829;47;19997;-72
2023/10/14 01:14:00;;;;;;;;;;;19.20;99.90;;;;;;2619095;54;19953;-73
2023/10/14 01:16:36;;;;;;;;;;;19.30;99.90;;;;;;2625852;54;19946;-72
2023/10/14 01:19:11;;;;;;;;;;;19.30;99.90;;;;;;2625978;54;19958;-72
2023/10/14 01:21:43;;;;;;;;;;;19.30;99.90;;;;;;2623042;54;19973;-74
2023/10/14 01:24:18;;;;;;;;;;;19.30;99.90;;;;;;2625626;54;19980;-72
2023/10/14 01:26:54;;;;;;;;;;;19.40;99.90;;;;;;2620043;54;19946;-72
2023/10/14 01:29:31;;;;;;;;;;;19.40;99.90;;;;;;2619748;54;19946;-72
2023/10/14 01:32:10;;;;;;;;;;;19.50;99.90;;;;;;2618055;54;19950;-72
2023/10/14 01:34:44;;;;;;;;;;;19.60;99.90;;;;;;2619795;46;20434;-74
2023/10/14 01:37:19;;;;;;;;;;;19.60;99.90;;;;;;2619269;54;19943;-72
2023/10/14 01:39:56;;;;;;;;;;;19.70;99.90;;;;;;2624736;54;20453;-73
2023/10/14 01:42:29;;;;;;;;;;;19.80;99.90;;;;;;2627611;54;19938;-72
2023/10/14 01:44:59;;;;;;;;;;;19.80;99.90;;;;;;2627191;47;19939;-72
2023/10/14 01:47:32;;;;;;;;;;;19.80;99.90;;;;;;2626440;54;19943;-74
2023/10/14 01:50:04;;;;;;;;;;;19.90;99.90;;;;;;2627127;54;19974;-73
2023/10/14 01:52:34;;;;;;;;;;;20.00;99.90;;;;;;2627192;47;20238;-73
2023/10/14 01:55:08;;;;;;;;;;;20.00;99.90;;;;;;2627714;54;19923;-73
2023/10/14 01:57:39;;;;;;;;;;;20.10;99.90;;;;;;2628047;54;19950;-72
2023/10/14 02:00:24;;;;;;;;;;;20.10;99.90;;;;;;2628099;54;19938;-73
2023/10/14 02:03:00;;;;;;;;;;;20.20;99.90;;;;;;2627596;54;19951;-73
2023/10/14 02:05:34;;;;;;;;;;;20.20;99.90;;;;;;2627890;54;19953;-73
2023/10/14 02:08:04;;;;;;;;;;;20.20;99.90;;;;;;2627532;54;19975;-72
2023/10/14 02:10:37;;;;;;;;;;;20.20;99.90;;;;;;2627039;54;19958;-73
2023/10/14 02:13:07;;;;;;;;;;;20.30;99.90;;;;;;2626434;47;19942;-73
2023/10/14 02:15:37;;;;;;;;;;;20.30;99.90;;;;;;2620351;47;19946;-73
2023/10/14 02:18:07;;;;;;;;;;;20.30;99.90;;;;;;2619217;47;19946;-73
2023/10/14 02:20:56;;;;;;;;;;;20.30;99.90;;;;;;2619669;54;19939;-72
2023/10/14 02:23:27;;;;;;;;;;;20.40;99.90;;;;;;2627100;47;19968;-75
2023/10/14 02:26:00;;;;;;;;;;;20.30;99.90;;;;;;2620758;54;19954;-73
2023/10/14 02:28:40;;;;;;;;;;;20.30;99.90;;;;;;2618923;54;19938;-73
2023/10/14 02:31:17;;;;;;;;;;;20.40;99.90;;;;;;2624098;54;20033;-73
2023/10/14 03:22:28;;;;;;;;;;;20.40;99.90;;;;;;2602569;46;20093;-76
2023/10/14 03:25:08;;;;;;;;;;;20.40;99.90;;;;;;2616971;54;20426;-74
2023/10/14 03:27:39;;;;;;;;;;;20.40;99.90;;;;;;2615659;47;19954;-75
2023/10/14 03:30:11;;;;;;;;;;;20.40;99.90;;;;;;2616289;50;19970;-75
2023/10/14 03:32:42;;;;;;;;;;;20.40;99.90;;;;;;2616315;54;19954;-76
2023/10/14 03:35:20;;;;;;;;;;;20.40;99.90;;;;;;2614201;54;19954;-75
2023/10/14 03:38:00;;;;;;;;;;;20.30;99.90;;;;;;2612982;47;19953;-75
2023/10/14 03:40:52;;;;;;;;;;;20.30;99.90;;;;;;2616196;54;19946;-76
2023/10/14 03:43:22;;;;;;;;;;;20.30;99.90;;;;;;2615292;54;19947;-75
2023/10/14 03:45:56;;;;;;;;;;;20.30;99.90;;;;;;2617832;47;19946;-75
2023/10/14 03:48:35;;;;;;;;;;;20.20;99.90;;;;;;2617749;47;19983;-75
2023/10/14 03:51:10;;;;;;;;;;;20.20;99.90;;;;;;2617990;47;19946;-75
2023/10/14 03:53:45;;;;;;;;;;;20.10;99.90;;;;;;2617190;51;19964;-75
2023/10/14 03:56:15;;;;;;;;;;;20.10;99.90;;;;;;2617808;47;19947;-75
2023/10/14 03:58:55;;;;;;;;;;;20.10;99.90;;;;;;2617820;54;19942;-76
2023/10/14 04:01:29;;;;;;;;;;;20.10;99.90;;;;;;2617692;47;19938;-75
2023/10/14 04:04:01;;;;;;;;;;;20.10;99.90;;;;;;2617263;47;19938;-76
2023/10/14 04:06:35;;;;;;;;;;;20.10;99.90;;;;;;2618408;54;19971;-65
2023/10/14 04:09:09;;;;;;;;;;;20.10;99.90;;;;;;2616869;54;19967;-68
2023/10/14 04:11:39;;;;;;;;;;;20.10;99.90;;;;;;2617633;54;19990;-76
2023/10/14 04:14:13;;;;;;;;;;;20.10;99.90;;;;;;2618127;47;19939;-77
2023/10/14 04:17:08;;;;;;;;;;;20.10;99.90;;;;;;2618607;47;19939;-77
2023/10/14 04:19:47;;;;;;;;;;;20.10;99.90;;;;;;2619269;47;19939;-76
2023/10/14 04:22:32;;;;;;;;;;;20.10;99.90;;;;;;2617812;47;20026;-76
2023/10/14 04:25:18;;;;;;;;;;;20.00;99.90;;;;;;2619073;47;20499;-76
2023/10/14 04:28:17;;;;;;;;;;;20.00;99.90;;;;;;2622457;39;20331;-78
2023/10/14 04:30:47;;;;;;;;;;;19.90;99.90;;;;;;2623275;47;19950;-78
2023/10/14 04:33:24;;;;;;;;;;;19.90;99.90;;;;;;2619229;47;19995;-76
2023/10/14 04:36:18;;;;;;;;;;;19.90;99.90;;;;;;2618654;54;19942;-76
2023/10/14 04:39:04;;;;;;;;;;;19.80;99.90;;;;;;2618208;46;20050;-78
2023/10/14 04:41:45;;;;;;;;;;;19.80;99.90;;;;;;2617467;52;19946;-76
2023/10/14 04:44:17;;;;;;;;;;;19.80;99.90;;;;;;2618570;54;19948;-77
2023/10/14 04:46:54;;;;;;;;;;;19.70;99.90;;;;;;2618526;54;19947;-76
2023/10/14 04:49:36;;;;;;;;;;;19.70;99.90;;;;;;2619021;39;20337;-75
2023/10/14 04:52:08;;;;;;;;;;;19.70;99.90;;;;;;2618204;47;20426;-78
2023/10/14 04:54:51;;;;;;;;;;;19.70;99.90;;;;;;2618466;46;19950;-77
2023/10/14 04:57:24;;;;;;;;;;;19.60;99.90;;;;;;2618579;47;19938;-77
2023/10/14 04:59:55;;;;;;;;;;;19.60;99.90;;;;;;2618124;47;19954;-76
2023/10/14 05:02:30;;;;;;;;;;;19.60;99.90;;;;;;2618288;54;20171;-77
2023/10/14 05:05:06;;;;;;;;;;;19.50;99.90;;;;;;2618782;39;20468;-77
2023/10/14 05:07:36;;;;;;;;;;;19.50;99.90;;;;;;2618838;47;20014;-77
2023/10/14 05:10:10;;;;;;;;;;;19.40;99.90;;;;;;2618674;54;19946;-79
2023/10/14 05:12:51;;;;;;;;;;;19.40;99.90;;;;;;2617055;47;19963;-74
2023/10/14 05:15:26;;;;;;;;;;;19.30;99.90;;;;;;2618878;39;20349;-76
2023/10/14 05:18:00;;;;;;;;;;;19.30;99.90;;;;;;2618131;47;19958;-76
2023/10/14 05:20:54;;;;;;;;;;;19.10;99.90;;;;;;2617278;47;19962;-74
2023/10/14 05:25:56;;;;;;;;;;;18.20;99.90;;;;;;2632091;54;19926;-88
2023/10/14 05:28:35;;;;;;;;;;;17.90;99.90;;;;;;2613686;47;20426;-73
2023/10/14 05:36:22;;;;;;;;;;;17.30;99.90;;;;;;2632560;54;19952;-84
2023/10/14 05:38:52;;;;;;;;;;;17.10;99.90;;;;;;2607811;47;19946;-76
2023/10/14 05:41:22;;;;;;;;;;;17.00;99.90;;;;;;2614094;47;20755;-74
2023/10/14 05:43:54;;;;;;;;;;;16.70;99.90;;;;;;2616717;54;19938;-74
2023/10/14 05:46:26;;;;;;;;;;;16.70;99.90;;;;;;2616652;54;19945;-74
2023/10/14 05:48:56;;;;;;;;;;;16.60;99.90;;;;;;2610765;47;19938;-72
2023/10/14 05:51:26;;;;;;;;;;;16.50;99.90;;;;;;2616956;47;19980;-74
2023/10/14 05:56:32;;;;;;;;;;;16.40;99.90;;;;;;2632143;47;19934;-88
2023/10/14 05:59:06;;;;;;;;;;;16.40;99.90;;;;;;2618777;46;20019;-76
2023/10/14 06:01:51;;;;;;;;;;;16.30;99.90;;;;;;2618275;39;20098;-79
2023/10/14 06:04:21;;;;;;;;;;;16.30;99.90;;;;;;2608752;47;20434;-78
2023/10/14 06:06:51;;;;;;;;;;;16.20;99.90;;;;;;2620968;47;19995;-77
2023/10/14 06:09:21;;;;;;;;;;;14.60;99.90;;;;;;2619845;47;20458;-76
2023/10/14 06:11:53;;;;;;;;;;;16.20;99.90;;;;;;2618890;39;20378;-75
2023/10/14 06:14:25;;;;;;;;;;;16.10;99.90;;;;;;2617909;54;20034;-75
2023/10/14 06:16:57;;;;;;;;;;;16.10;99.90;;;;;;2618721;54;19945;-75
2023/10/14 06:19:30;;;;;;;;;;;16.10;99.90;;;;;;2620063;54;20582;-76
2023/10/14 06:22:00;;;;;;;;;;;16.10;99.90;;;;;;2622608;54;19970;-78
2023/10/14 06:24:30;;;;;;;;;;;16.10;99.90;;;;;;2622285;47;20014;-77
2023/10/14 06:27:08;;;;;;;;;;;16.10;99.90;;;;;;2621703;54;19938;-77
2023/10/14 06:29:42;;;;;;;;;;;16.10;99.90;;;;;;2620453;46;19954;-77
2023/10/14 06:32:12;;;;;;;;;;;16.10;99.90;;;;;;2619639;47;19971;-77
2023/10/14 06:34:57;;;;;;;;;;;16.20;99.90;;;;;;2624202;47;19942;-79
2023/10/14 06:37:40;;;;;;;;;;;16.20;99.90;;;;;;2624220;47;20050;-78
2023/10/14 06:40:12;;;;;;;;;;;16.20;99.90;;;;;;2624754;39;20379;-78
2023/10/14 06:42:43;;;;;;;;;;;16.20;99.90;;;;;;2625691;47;19927;-80
2023/10/14 06:45:18;;;;;;;;;;;16.20;99.90;;;;;;2627469;54;19998;-77
2023/10/14 06:47:56;;;;;;;;;;;16.20;99.90;;;;;;2629833;47;19951;-79
2023/10/14 06:50:26;;;;;;;;;;;16.10;99.90;;;;;;2625907;47;19943;-78
2023/10/14 06:52:58;;;;;;;;;;;16.00;99.90;;;;;;2624769;46;20513;-79
2023/10/14 06:55:37;;;;;;;;;;;16.00;99.90;;;;;;2626369;47;19942;-80
2023/10/14 06:58:07;;;;;;;;;;;16.00;99.90;;;;;;2629070;39;20624;-78
2023/10/14 07:03:36;;;;;;;;;;;15.80;99.90;;;;;;2615700;47;20046;-77
2023/10/14 07:06:06;;;;;;;;;;;15.70;99.90;;;;;;2621037;54;19946;-77
2023/10/14 07:08:36;;;;;;;;;;;15.60;99.90;;;;;;2620864;47;19946;-79
2023/10/14 07:11:06;;;;;;;;;;;15.60;99.90;;;;;;2620708;47;19968;-79
2023/10/14 07:13:38;;;;;;;;;;;15.50;99.90;;;;;;2623246;47;19954;-78
2023/10/14 07:16:11;;;;;;;;;;;15.40;99.90;;;;;;2621414;47;19967;-76
2023/10/14 07:18:43;;;;;;;;;;;15.30;99.90;;;;;;2621733;47;19938;-78
2023/10/14 07:21:15;;;;;;;;;;;15.30;99.90;;;;;;2620499;54;19946;-77
2023/10/14 07:23:45;;;;;;;;;;;15.30;99.90;;;;;;2620057;47;20434;-77
2023/10/14 07:26:15;;;;;;;;;;;15.30;99.90;;;;;;2624348;47;19946;-80
2023/10/14 07:28:51;;;;;;;;;;;15.40;99.90;;;;;;2621334;54;19978;-78
2023/10/14 07:31:23;;;;;;;;;;;15.40;99.90;;;;;;2619730;54;20033;-78
2023/10/14 07:34:02;;;;;;;;;;;15.40;99.90;;;;;;2620528;54;19999;-79
2023/10/14 07:36:32;;;;;;;;;;;15.30;99.90;;;;;;2623115;54;19951;-78
2023/10/14 07:39:27;;;;;;;;;;;15.20;99.90;;;;;;2624984;54;19966;-76
2023/10/14 07:41:54;;;;;;;;;;;15.10;99.90;;;;;;2627531;54;19941;-79
2023/10/14 07:44:27;;;;;;;;;;;15.10;99.90;;;;;;2625438;47;19953;-77
2023/10/14 07:46:56;;;;;;;;;;;15.00;99.90;;;;;;2626480;54;19998;-77
2023/10/14 07:49:29;;;;;;;;;;;14.90;99.90;;;;;;2624326;47;19995;-80
2023/10/14 07:52:00;;;;;;;;;;;14.90;99.90;;;;;;2626009;47;19954;-81
2023/10/14 07:54:31;;;;;;;;;;;15.00;99.90;;;;;;2624724;47;19946;-79
2023/10/14 07:57:02;;;;;;;;;;;15.00;99.90;;;;;;2622993;39;20215;-79
2023/10/14 07:59:34;;;;;;;;;;;15.00;99.90;;;;;;2606856;54;20556;-68
2023/10/14 08:02:04;;;;;;;;;;;15.00;99.90;;;;;;2603677;54;19947;-64
2023/10/14 08:04:37;;;;;;;;;;;15.00;99.90;;;;;;2604403;47;19946;-61
2023/10/14 08:07:09;;;;;;;;;;;15.10;99.90;;;;;;2605226;47;19998;-61
2023/10/14 08:09:42;;;;;;;;;;;15.00;99.90;;;;;;2605544;47;20003;-62
2023/10/14 08:12:14;;;;;;;;;;;15.10;99.90;;;;;;2604060;39;20416;-62
2023/10/14 08:14:44;;;;;;;;;;;15.10;99.90;;;;;;2605035;54;20509;-62
2023/10/14 08:17:14;;;;;;;;;;;15.10;99.90;;;;;;2605282;54;20330;-62
2023/10/14 08:19:46;;;;;;;;;;;15.10;99.90;;;;;;2604700;47;19954;-62
2023/10/14 08:22:17;;;;;;;;;;;15.10;99.90;;;;;;2603992;54;19938;-61
2023/10/14 08:24:50;;;;;;;;;;;15.10;99.90;;;;;;2605006;54;19973;-62
2023/10/14 08:27:19;;;;;;;;;;;15.20;99.90;;;;;;2604702;54;20076;-62
2023/10/14 08:29:53;;;;;;;;;;;15.30;99.90;;;;;;2604984;54;19953;-63
2023/10/14 08:32:23;;;;;;;;;;;15.30;99.90;;;;;;2604670;54;19953;-62
2023/10/14 08:34:56;;;;;;;;;;;15.40;99.90;;;;;;2603936;54;19946;-62
2023/10/14 08:37:26;;;;;;;;;;;15.40;99.90;;;;;;2604861;54;19950;-62
2023/10/14 08:39:58;;;;;;;;;;;15.50;99.90;;;;;;2605099;54;20341;-62
2023/10/14 08:42:27;;;;;;;;;;;15.60;99.90;;;;;;2605912;39;20341;-62
2023/10/14 08:44:58;;;;;;;;;;;15.70;99.90;;;;;;2605475;54;19946;-64
2023/10/14 08:47:28;;;;;;;;;;;15.80;99.90;;;;;;2605924;54;19947;-62
2023/10/14 08:50:01;;;;;;;;;;;15.90;99.90;;;;;;2605670;54;19999;-63
2023/10/14 08:52:32;;;;;;;;;;;16.00;99.90;;;;;;2605068;54;20481;-63
2023/10/14 08:55:03;;;;;;;;;;;16.10;99.90;;;;;;2601787;54;20360;-63
2023/10/14 08:57:34;;;;;;;;;;;16.10;99.90;;;;;;2603728;47;19957;-63
2023/10/14 09:00:05;;;;;;;;;;;16.10;99.90;;;;;;2604146;54;19946;-63
2023/10/14 09:02:36;;;;;;;;;;;16.10;99.90;;;;;;2605033;54;19966;-77
2023/10/14 09:05:11;;;;;;;;;;;16.10;99.90;;;;;;2608164;47;20482;-78
2023/10/14 09:07:43;;;;;;;;;;;16.10;99.90;;;;;;2606907;54;19950;-77
2023/10/14 09:10:15;;;;;;;;;;;16.10;99.90;;;;;;2608088;54;19946;-76
2023/10/14 09:12:55;;;;;;;;;;;16.20;99.90;;;;;;2605832;47;20663;-77
2023/10/14 09:15:26;;;;;;;;;;;16.20;99.90;;;;;;2607436;47;20569;-76
2023/10/14 09:17:57;;;;;;;;;;;16.20;99.90;;;;;;2608620;47;19939;-77
2023/10/14 09:20:34;;;;;;;;;;;16.30;99.90;;;;;;2608085;47;20042;-77
2023/10/14 09:23:17;;;;;;;;;;;16.40;99.90;;;;;;2611320;46;19946;-78
2023/10/14 09:25:49;;;;;;;;;;;16.50;99.90;;;;;;2614788;54;19943;-82
2023/10/14 09:28:20;;;;;;;;;;;16.50;99.90;;;;;;2616475;47;20490;-80
2023/10/14 09:30:51;;;;;;;;;;;16.50;99.90;;;;;;2617511;47;19950;-79
2023/10/14 09:33:22;;;;;;;;;;;16.50;99.90;;;;;;2617807;47;19953;-79
2023/10/14 09:35:54;;;;;;;;;;;16.50;99.90;;;;;;2615156;54;19953;-80
2023/10/14 09:38:32;;;;;;;;;;;16.50;99.90;;;;;;2612169;47;19947;-80
2023/10/14 09:41:02;;;;;;;;;;;16.50;99.90;;;;;;2608555;54;19953;-76
2023/10/14 09:43:32;;;;;;;;;;;16.60;99.90;;;;;;2611379;47;20847;-78
2023/10/14 09:46:03;;;;;;;;;;;16.20;99.90;;;;;;2609126;47;19995;-72
2023/10/14 09:48:34;;;;;;;;;;;16.70;99.90;;;;;;2605422;47;19946;-60
2023/10/14 09:51:07;;;;;;;;;;;16.70;99.90;;;;;;2604631;54;19953;-60
2023/10/14 09:53:37;;;;;;;;;;;16.90;99.90;;;;;;2604149;54;19947;-60
2023/10/14 09:56:10;;;;;;;;;;;17.00;99.90;;;;;;2604647;54;20050;-60
2023/10/14 09:58:41;;;;;;;;;;;17.00;99.90;;;;;;2604944;54;19987;-61
2023/10/14 10:01:12;;;;;;;;;;;17.10;99.90;;;;;;2604513;54;19958;-61
2023/10/14 10:03:44;;;;;;;;;;;17.10;99.90;;;;;;2604368;39;20338;-61
2023/10/14 10:06:24;;;;;;;;;;;17.20;99.90;;;;;;2604728;54;20526;-61
2023/10/14 10:09:02;;;;;;;;;;;17.30;99.90;;;;;;2605280;54;20465;-61
2023/10/14 10:11:33;;;;;;;;;;;17.30;99.90;;;;;;2605204;54;20068;-62
2023/10/14 10:14:03;;;;;;;;;;;17.40;99.90;;;;;;2605482;47;19946;-61
2023/10/14 10:16:34;;;;;;;;;;;17.50;99.90;;;;;;2604764;54;19946;-61
2023/10/14 10:19:05;;;;;;;;;;;17.60;99.90;;;;;;2604516;54;20490;-61
2023/10/14 10:21:40;;;;;;;;;;;17.70;99.90;;;;;;2605491;31;20417;-61
2023/10/14 10:24:20;;;;;;;;;;;17.80;99.90;;;;;;2603911;47;20224;-62
2023/10/14 10:27:08;;;;;;;;;;;17.90;99.90;;;;;;2605618;54;19954;-61
2023/10/14 10:29:44;;;;;;;;;;;19.20;99.90;;;;;;2604567;39;20378;-71
2023/10/14 10:32:16;;;;;;;;;;;17.70;99.90;;;;;;2608171;54;19947;-74
2023/10/14 10:35:05;;;;;;;;;;;17.50;99.90;;;;;;2605260;47;19982;-73
2023/10/14 10:37:38;;;;;;;;;;;17.50;99.90;;;;;;2605653;54;19954;-74
2023/10/14 10:40:10;;;;;;;;;;;17.50;99.90;;;;;;2605901;54;19954;-74
2023/10/14 10:42:41;;;;;;;;;;;17.50;99.90;;;;;;2604735;39;20807;-72
2023/10/14 10:45:20;;;;;;;;;;;17.50;99.90;;;;;;2605950;47;20060;-75
2023/10/14 10:47:56;;;;;;;;;;;17.60;99.90;;;;;;2605433;47;19953;-75
2023/10/14 10:50:28;;;;;;;;;;;17.60;99.90;;;;;;2604934;54;19970;-71
2023/10/14 10:53:16;;;;;;;;;;;17.70;99.90;;;;;;2602852;54;19946;-71
2023/10/14 10:55:49;;;;;;;;;;;17.80;99.90;;;;;;2604808;54;20042;-71
2023/10/14 10:58:20;;;;;;;;;;;17.90;99.90;;;;;;2605024;54;20500;-72
2023/10/14 11:00:51;;;;;;;;;;;18.00;99.90;;;;;;2605189;54;20720;-71
2023/10/14 11:03:23;;;;;;;;;;;18.10;99.90;;;;;;2604454;54;19977;-71
2023/10/14 11:05:53;;;;;;;;;;;18.20;99.90;;;;;;2603578;54;19955;-74
2023/10/14 11:08:24;;;;;;;;;;;18.30;99.90;;;;;;2604241;51;19971;-74
2023/10/14 11:10:57;;;;;;;;;;;18.50;99.90;;;;;;2604286;54;19950;-73
2023/10/14 11:13:28;;;;;;;;;;;18.50;99.90;;;;;;2603543;54;19970;-74
2023/10/14 11:15:58;;;;;;;;;;;18.50;99.90;;;;;;2604517;31;20585;-73
2023/10/14 11:18:30;;;;;;;;;;;18.50;99.90;;;;;;2604199;54;19960;-73
2023/10/14 11:21:08;;;;;;;;;;;18.40;99.90;;;;;;2604506;54;20592;-75
2023/10/14 11:23:40;;;;;;;;;;;18.30;99.90;;;;;;2606306;54;19971;-73
2023/10/14 11:26:15;;;;;;;;;;;18.40;99.90;;;;;;2607547;54;19954;-74
2023/10/14 11:28:48;;;;;;;;;;;18.30;99.90;;;;;;2605060;54;19951;-73
2023/10/14 11:31:20;;;;;;;;;;;18.20;99.90;;;;;;2605117;54;19947;-75
2023/10/14 11:33:50;;;;;;;;;;;18.10;99.90;;;;;;2604428;47;20106;-74
2023/10/14 11:36:20;;;;;;;;;;;18.20;99.90;;;;;;2604185;54;20523;-73
2023/10/14 11:38:50;;;;;;;;;;;18.30;99.90;;;;;;2604342;54;19951;-73
2023/10/14 11:41:22;;;;;;;;;;;18.30;99.90;;;;;;2605134;47;19946;-73
2023/10/14 11:43:52;;;;;;;;;;;18.50;99.90;;;;;;2604488;47;19954;-74
2023/10/14 11:46:21;;;;;;;;;;;18.60;99.90;;;;;;2605652;54;19954;-75
2023/10/14 11:48:53;;;;;;;;;;;18.70;99.90;;;;;;2605382;47;20511;-75
2023/10/14 11:51:25;;;;;;;;;;;18.90;99.90;;;;;;2604813;54;19974;-75
2023/10/14 11:53:54;;;;;;;;;;;19.00;99.90;;;;;;2603591;54;19947;-61
2023/10/14 11:56:27;;;;;;;;;;;19.20;99.90;;;;;;2605635;54;19953;-61
2023/10/14 11:58:56;;;;;;;;;;;19.40;99.90;;;;;;2604562;54;19946;-62
2023/10/14 12:01:26;;;;;;;;;;;19.60;99.90;;;;;;2604550;54;19953;-62
2023/10/14 12:03:55;;;;;;;;;;;19.80;99.90;;;;;;2603547;54;19957;-62
2023/10/14 12:06:27;;;;;;;;;;;19.80;99.90;;;;;;2605630;47;19951;-62
2023/10/14 12:08:57;;;;;;;;;;;19.90;99.90;;;;;;2605701;39;20354;-61
2023/10/14 12:11:29;;;;;;;;;;;20.10;99.90;;;;;;2606397;54;19954;-62
2023/10/14 12:13:59;;;;;;;;;;;20.30;99.90;;;;;;2605133;54;19946;-61
2023/10/14 12:16:28;;;;;;;;;;;20.40;99.90;;;;;;2605602;39;20798;-62
2023/10/14 12:18:59;;;;;;;;;;;19.50;99.90;;;;;;2614912;54;20030;-62
2023/10/14 12:21:29;;;;;;;;;;;20.20;99.90;;;;;;2616553;54;20551;-63
2023/10/14 12:24:02;;;;;;;;;;;19.90;99.90;;;;;;2614691;54;19946;-62
2023/10/14 12:26:36;;;;;;;;;;;19.60;99.90;;;;;;2616985;54;20033;-61
2023/10/14 12:29:10;;;;;;;;;;;19.40;99.90;;;;;;2616607;54;20054;-62
2023/10/14 12:31:43;;;;;;;;;;;19.30;99.90;;;;;;2615878;54;19946;-61
2023/10/14 12:34:14;;;;;;;;;;;19.10;99.90;;;;;;2616673;39;20327;-61
2023/10/14 12:36:45;;;;;;;;;;;18.90;99.90;;;;;;2616972;50;19938;-61
2023/10/14 12:39:26;;;;;;;;;;;18.80;99.90;;;;;;2618038;54;19939;-76
2023/10/14 12:42:03;;;;;;;;;;;18.90;99.90;;;;;;2617379;47;19939;-76
2023/10/14 12:44:35;;;;;;;;;;;18.70;99.90;;;;;;2618039;54;19971;-77
2023/10/14 12:47:10;;;;;;;;;;;18.60;99.90;;;;;;2618013;46;20029;-76
2023/10/14 12:49:42;;;;;;;;;;;18.50;99.90;;;;;;2618043;47;19966;-77
2023/10/14 12:52:15;;;;;;;;;;;18.20;99.90;;;;;;2616285;47;19946;-76
2023/10/14 12:54:45;;;;;;;;;;;18.10;99.90;;;;;;2617570;47;19959;-76
2023/10/14 12:57:18;;;;;;;;;;;18.00;99.90;;;;;;2620818;47;19994;-78
2023/10/14 12:59:47;;;;;;;;;;;18.00;99.90;;;;;;2621671;46;19954;-77
2023/10/14 13:02:20;;;;;;;;;;;17.90;99.90;;;;;;2621722;47;19946;-78
2023/10/14 13:04:51;;;;;;;;;;;17.90;99.90;;;;;;2625880;48;19930;-78
2023/10/14 13:07:21;;;;;;;;;;;17.80;99.90;;;;;;2624379;47;19931;-79
2023/10/14 13:09:51;;;;;;;;;;;17.80;99.90;;;;;;2623262;39;20373;-78
2023/10/14 13:18:04;;;;;;;;;;;17.60;99.90;;;;;;2613794;54;19991;-71
2023/10/14 13:20:35;;;;;;;;;;;17.50;99.90;;;;;;2613489;47;19950;-72
2023/10/14 13:23:07;;;;;;;;;;;17.60;99.90;;;;;;2602874;54;19939;-71
2023/10/14 13:25:38;;;;;;;;;;;18.40;99.90;;;;;;2605804;54;19946;-71
2023/10/14 13:28:09;;;;;;;;;;;17.50;99.90;;;;;;2605676;39;20408;-72
2023/10/14 13:30:45;;;;;;;;;;;17.40;99.90;;;;;;2603667;47;20034;-70
2023/10/14 13:33:18;;;;;;;;;;;17.20;99.90;;;;;;2605096;54;19954;-70
2023/10/14 13:35:48;;;;;;;;;;;17.20;99.90;;;;;;2606651;54;19946;-72
2023/10/14 13:38:18;;;;;;;;;;;17.10;99.90;;;;;;2605855;54;19951;-71
2023/10/14 13:40:49;;;;;;;;;;;17.00;99.90;;;;;;2605675;47;19950;-71
2023/10/14 13:43:20;;;;;;;;;;;16.90;99.90;;;;;;2605605;47;20433;-73
2023/10/14 13:45:52;;;;;;;;;;;16.90;99.90;;;;;;2606260;54;19951;-73
2023/10/14 13:48:24;;;;;;;;;;;16.90;99.90;;;;;;2605970;54;19958;-73
2023/10/14 13:50:55;;;;;;;;;;;16.90;99.90;;;;;;2606740;54;19946;-73
2023/10/14 13:53:25;;;;;;;;;;;17.40;99.90;;;;;;2605603;54;19947;-72
2023/10/14 13:55:56;;;;;;;;;;;17.00;99.90;;;;;;2607389;54;20034;-72
2023/10/14 13:58:26;;;;;;;;;;;17.00;99.90;;;;;;2605974;54;20012;-71
2023/10/14 14:00:56;;;;;;;;;;;17.10;99.90;;;;;;2605858;47;19950;-72
2023/10/14 14:03:29;;;;;;;;;;;17.10;99.90;;;;;;2605841;39;20379;-71
2023/10/14 14:05:59;;;;;;;;;;;17.30;99.90;;;;;;2606143;54;20002;-72
2023/10/14 14:08:29;;;;;;;;;;;17.30;99.90;;;;;;2606654;47;19947;-72
2023/10/14 14:11:00;;;;;;;;;;;17.30;99.90;;;;;;2606199;54;20524;-74
2023/10/14 14:13:31;;;;;;;;;;;17.20;99.90;;;;;;2605587;54;20068;-73
2023/10/14 14:16:01;;;;;;;;;;;17.20;99.90;;;;;;2604948;47;20480;-72
2023/10/14 14:18:34;;;;;;;;;;;17.20;99.90;;;;;;2606431;54;19946;-73
2023/10/14 14:21:04;;;;;;;;;;;17.20;99.90;;;;;;2606034;54;19946;-73
2023/10/14 14:23:34;;;;;;;;;;;17.10;99.90;;;;;;2605003;54;20990;-72
2023/10/14 14:26:06;;;;;;;;;;;17.00;99.90;;;;;;2605618;54;20010;-72
2023/10/14 14:28:37;;;;;;;;;;;16.90;99.90;;;;;;2606032;54;19946;-73
2023/10/14 14:31:06;;;;;;;;;;;16.80;99.90;;;;;;2607120;47;19946;-73
2023/10/14 14:33:39;;;;;;;;;;;16.70;99.90;;;;;;2605945;54;19947;-73
2023/10/14 14:36:10;;;;;;;;;;;16.70;99.90;;;;;;2606251;47;19971;-71
2023/10/14 14:38:41;;;;;;;;;;;16.60;99.90;;;;;;2606988;54;19946;-72
2023/10/14 14:41:16;;;;;;;;;;;16.60;99.90;;;;;;2606786;54;19946;-71
2023/10/14 14:43:46;;;;;;;;;;;16.60;99.90;;;;;;2606587;47;19939;-71
2023/10/14 14:46:13;;;;;;;;;;;16.60;99.90;;;;;;2605785;54;19947;-72
2023/10/14 14:48:48;;;;;;;;;;;16.60;99.90;;;;;;2606680;47;19946;-72
2023/10/14 14:51:18;;;;;;;;;;;16.60;99.90;;;;;;2606908;54;19957;-71
2023/10/14 14:53:50;;;;;;;;;;;18.50;99.90;;;;;;2608512;47;19957;-72
2023/10/14 14:56:20;;;;;;;;;;;21.40;99.90;;;;;;2608317;54;19970;-72
2023/10/14 14:58:49;;;;;;;;;;;24.20;99.90;;;;;;2608080;54;19946;-73
2023/10/14 15:01:19;;;;;;;;;;;26.20;99.90;;;;;;2606630;54;19978;-75
2023/10/14 15:03:52;;;;;;;;;;;27.00;99.90;;;;;;2605316;54;19950;-73
2023/10/14 15:06:22;;;;;;;;;;;26.00;99.90;;;;;;2606351;39;20328;-75
2023/10/14 15:08:52;;;;;;;;;;;24.50;99.90;;;;;;2607463;54;19947;-72
2023/10/14 15:11:25;;;;;;;;;;;23.10;99.90;;;;;;2607775;54;19946;-75
2023/10/14 15:13:55;;;;;;;;;;;22.00;99.90;;;;;;2608160;50;19994;-75
2023/10/14 15:16:24;;;;;;;;;;;21.10;99.90;;;;;;2607940;54;20061;-75
2023/10/14 15:19:15;;;;;;;;;;;20.30;99.90;;;;;;2607514;50;19953;-74
2023/10/14 15:21:48;;;;;;;;;;;19.70;99.90;;;;;;2607336;49;20629;-73
2023/10/14 15:24:19;;;;;;;;;;;19.30;99.90;;;;;;2607074;47;19953;-76
2023/10/14 15:26:48;;;;;;;;;;;19.40;99.90;;;;;;2608596;54;20038;-74
2023/10/14 15:29:18;;;;;;;;;;;19.20;99.90;;;;;;2607639;47;19954;-76
2023/10/14 15:31:48;;;;;;;;;;;19.00;99.90;;;;;;2607961;47;20017;-74
2023/10/14 15:34:27;;;;;;;;;;;18.80;99.90;;;;;;2608485;54;20065;-76
2023/10/14 15:36:57;;;;;;;;;;;18.60;99.90;;;;;;2610209;39;20189;-75
2023/10/14 15:39:33;;;;;;;;;;;18.50;99.90;;;;;;2618724;54;20534;-74
2023/10/14 15:42:03;;;;;;;;;;;18.30;99.90;;;;;;2618053;54;20468;-75
2023/10/14 15:44:33;;;;;;;;;;;18.10;99.90;;;;;;2618116;47;20016;-75
2023/10/14 15:47:04;;;;;;;;;;;17.90;99.90;;;;;;2617599;47;19946;-74
2023/10/14 15:49:42;;;;;;;;;;;17.80;99.90;;;;;;2618634;54;19946;-75
2023/10/14 15:52:12;;;;;;;;;;;17.50;99.90;;;;;;2618832;39;20476;-75
2023/10/14 15:54:47;;;;;;;;;;;17.20;99.90;;;;;;2618947;47;19964;-77
2023/10/14 15:57:17;;;;;;;;;;;17.00;99.90;;;;;;2619941;39;20305;-76
2023/10/14 15:59:47;;;;;;;;;;;16.70;99.90;;;;;;2620128;47;19950;-77